Atlanta, Mississippi
Current Conditions -  °F | °C
As of 9:55 PM on Saturday 25 Oct 2014 (Local Time) from KSTF Reporting Station
Clear Clear  
Wind Chill: 59°   Ceiling: Unl
Heat Index: 59°   Visibility: 7mi
Dew Point: 59°   Wind: 0mph
Humidity: 100%   Direction: NA
Pressure: 30.07"   Gusts: NA
Location:  33.7962°N, 89.0553°W
Report Text: KSTF 260255Z AUTO 00000KT 7SM CLR 15/15 A3007 RMK AO2
Loading
Personal Weather Stations






























Interactive Weather Map New forecast layout! Learn more

10-Day Weather Forecast

Advertisements
Track Severe Weather on mobile